createdAt,value
2018-12-05T00:02:20.585Z,5.17
2018-12-05T00:04:49.998Z,5.17
2018-12-05T00:07:18.901Z,8.40
2018-12-05T00:09:47.841Z,10.40
2018-12-05T00:12:16.754Z,7.20
2018-12-05T00:14:45.654Z,7.20
2018-12-05T00:17:14.713Z,6.80
2018-12-05T00:19:45.970Z,6.07
2018-12-05T00:22:14.579Z,6.63
2018-12-05T00:24:43.234Z,7.60
2018-12-05T00:27:11.855Z,6.20
2018-12-05T00:29:41.254Z,6.33
2018-12-05T00:32:10.210Z,6.63
2018-12-05T00:34:39.147Z,6.37
2018-12-05T00:37:08.478Z,6.47
2018-12-05T00:39:37.060Z,6.27
2018-12-05T00:42:06.050Z,5.80
2018-12-05T00:44:35.278Z,6.40
2018-12-05T00:47:04.203Z,6.30
2018-12-05T00:49:33.217Z,6.20
2018-12-05T00:52:02.158Z,6.63
2018-12-05T00:54:31.048Z,5.73
2018-12-05T00:57:06.044Z,8.07
2018-12-05T00:59:34.662Z,5.80
2018-12-05T01:02:03.296Z,5.70
2018-12-05T01:04:32.375Z,5.60
2018-12-05T01:07:01.755Z,5.97
2018-12-05T01:09:30.665Z,5.63
2018-12-05T01:11:59.901Z,14.63
2018-12-05T01:14:28.927Z,11.97
2018-12-05T01:16:57.610Z,8.87
2018-12-05T01:19:26.223Z,7.57
2018-12-05T01:21:54.914Z,7.43
2018-12-05T01:24:23.869Z,7.70
2018-12-05T01:26:58.737Z,7.63
2018-12-05T01:29:27.620Z,7.90
2018-12-05T01:31:56.553Z,8.47
2018-12-05T01:34:25.606Z,11.27
2018-12-05T01:36:54.257Z,9.87
2018-12-05T01:39:23.297Z,9.60
2018-12-05T01:41:52.288Z,7.70
2018-12-05T01:44:20.905Z,8.90
2018-12-05T01:46:49.855Z,8.13
2018-12-05T01:49:18.911Z,7.07
2018-12-05T01:51:47.606Z,5.77
2018-12-05T01:54:16.237Z,5.93
2018-12-05T01:56:56.996Z,5.43
2018-12-05T01:59:26.050Z,4.80
2018-12-05T02:01:54.669Z,5.17
2018-12-05T02:04:23.662Z,6.17
2018-12-05T02:06:52.309Z,5.37
2018-12-05T02:09:20.914Z,6.27
2018-12-05T02:11:57.414Z,6.27
2018-12-05T02:14:26.357Z,7.07
2018-12-05T02:16:55.308Z,6.50
2018-12-05T02:19:23.927Z,7.73
2018-12-05T02:21:53.423Z,7.80
2018-12-05T02:24:22.019Z,7.20
2018-12-05T02:26:51.002Z,7.23
2018-12-05T02:29:19.662Z,7.77
2018-12-05T02:31:48.583Z,8.33
2018-12-05T02:34:22.494Z,8.10
2018-12-05T02:36:51.198Z,8.30
2018-12-05T02:39:19.786Z,8.67
2018-12-05T02:41:48.483Z,7.77
2018-12-05T02:44:17.464Z,7.80
2018-12-05T02:46:46.063Z,8.40
2018-12-05T02:49:14.736Z,8.43
2018-12-05T02:51:43.694Z,8.07
2018-12-05T02:54:12.738Z,10.07
2018-12-05T02:56:41.380Z,8.93
2018-12-05T02:59:10.306Z,11.43
2018-12-05T03:01:39.416Z,10.07
2018-12-05T03:04:08.293Z,9.30
2018-12-05T03:06:36.936Z,9.57
2018-12-05T03:09:07.508Z,9.43
2018-12-05T03:11:36.453Z,9.63
2018-12-05T03:14:05.485Z,10.20
2018-12-05T03:17:44.253Z,10.90
2018-12-05T03:20:13.487Z,12.53
2018-12-05T03:22:42.091Z,11.03
2018-12-05T03:25:11.379Z,12.13
2018-12-05T03:27:40.012Z,12.27
2018-12-05T03:30:08.649Z,13.63
2018-12-05T03:32:45.609Z,12.03
2018-12-05T03:35:14.195Z,12.83
2018-12-05T03:37:42.816Z,12.03
2018-12-05T03:40:11.842Z,12.30
2018-12-05T03:42:40.861Z,14.30
2018-12-05T03:45:09.534Z,13.07
2018-12-05T03:47:59.753Z,12.23
2018-12-05T03:50:29.203Z,13.43
2018-12-05T03:52:57.819Z,14.33
2018-12-05T03:55:26.917Z,14.67
2018-12-05T03:57:55.831Z,12.87
2018-12-05T04:00:24.506Z,15.70
2018-12-05T04:02:54.541Z,13.90
2018-12-05T04:05:23.521Z,13.20
2018-12-05T04:07:52.486Z,13.10
2018-12-05T04:10:21.896Z,14.00
2018-12-05T04:12:50.887Z,15.80
2018-12-05T04:15:19.548Z,13.30
2018-12-05T04:17:48.587Z,13.43
2018-12-05T04:20:17.220Z,12.97
2018-12-05T04:22:45.885Z,13.57
2018-12-05T04:25:15.173Z,13.87
2018-12-05T04:27:44.101Z,13.67
2018-12-05T04:30:17.745Z,13.90
2018-12-05T04:32:46.788Z,13.33
2018-12-05T04:35:15.660Z,15.07
2018-12-05T04:37:44.905Z,13.73
2018-12-05T04:40:13.646Z,20.93
2018-12-05T04:42:42.761Z,15.07
2018-12-05T04:45:11.829Z,16.90
2018-12-05T04:47:40.469Z,13.77
2018-12-05T04:50:12.228Z,13.37
2018-12-05T04:52:40.955Z,11.17
2018-12-05T04:55:09.603Z,12.57
2018-12-05T04:57:38.522Z,21.10
2018-12-05T05:00:08.102Z,18.77
2018-12-05T05:02:42.665Z,14.63
2018-12-05T05:05:11.619Z,13.53
2018-12-05T05:07:40.247Z,13.83
2018-12-05T05:10:10.237Z,13.50
2018-12-05T05:12:39.138Z,10.90
2018-12-05T05:15:08.058Z,10.70
2018-12-05T05:17:39.063Z,11.33
2018-12-05T05:20:08.134Z,11.93
2018-12-05T05:22:37.050Z,12.77
2018-12-05T05:25:10.137Z,11.00
2018-12-05T05:27:45.722Z,10.70
2018-12-05T05:30:07.547Z,11.53
2018-12-05T05:32:37.593Z,11.30
2018-12-05T05:35:06.271Z,10.90
2018-12-05T05:37:34.932Z,14.53
2018-12-05T05:40:03.855Z,14.80
2018-12-05T05:42:39.135Z,11.47
2018-12-05T05:45:07.867Z,10.60
2018-12-05T05:47:36.742Z,11.80
2018-12-05T05:50:06.658Z,10.70
2018-12-05T05:52:35.684Z,10.50
2018-12-05T05:55:04.667Z,11.10
2018-12-05T05:57:40.160Z,10.90
2018-12-05T06:00:09.532Z,10.30
2018-12-05T06:02:38.326Z,9.30
2018-12-05T06:05:07.253Z,10.00
2018-12-05T06:07:35.916Z,10.10
2018-12-05T06:10:05.019Z,10.30
2018-12-05T06:12:33.700Z,10.10
2018-12-05T06:15:02.735Z,10.40
2018-12-05T06:17:31.481Z,12.10
2018-12-05T06:20:00.408Z,12.00
2018-12-05T06:22:44.511Z,10.70
2018-12-05T06:25:13.150Z,10.83
2018-12-05T06:27:41.782Z,10.67
2018-12-05T06:30:10.740Z,11.30
2018-12-05T06:32:40.141Z,9.80
2018-12-05T06:35:08.830Z,9.40
2018-12-05T06:37:37.742Z,9.77
2018-12-05T06:40:06.679Z,9.83
2018-12-05T06:42:35.292Z,8.37
2018-12-05T06:45:04.222Z,8.63
2018-12-05T06:47:33.204Z,8.90
2018-12-05T06:50:02.189Z,8.60
2018-12-05T06:52:30.841Z,8.17
2018-12-05T06:54:59.488Z,7.73
2018-12-05T06:57:28.771Z,7.47
2018-12-05T06:59:57.429Z,8.13
2018-12-05T07:02:26.419Z,8.40
2018-12-05T07:05:07.793Z,9.27
2018-12-05T07:07:36.705Z,9.80
2018-12-05T07:10:06.124Z,11.27
2018-12-05T07:12:35.088Z,10.80
2018-12-05T07:15:04.092Z,11.43
2018-12-05T07:17:32.764Z,10.03
2018-12-05T07:20:01.647Z,8.90
2018-12-05T07:22:30.579Z,11.47
2018-12-05T07:24:59.555Z,8.90
2018-12-05T07:27:28.471Z,9.60
2018-12-05T07:29:57.182Z,9.57
2018-12-05T07:32:25.821Z,8.50
2018-12-05T07:35:00.917Z,7.70
2018-12-05T07:37:29.790Z,7.40
2018-12-05T07:40:16.039Z,7.57
2018-12-05T07:42:45.087Z,7.27
2018-12-05T07:45:14.057Z,7.20
2018-12-05T07:47:42.794Z,9.73
2018-12-05T07:50:11.819Z,8.80
2018-12-05T07:52:40.475Z,9.40
2018-12-05T07:55:13.361Z,8.77
2018-12-05T07:57:42.307Z,6.53
2018-12-05T08:00:11.265Z,7.57
2018-12-05T08:02:40.269Z,8.10
2018-12-05T08:05:09.216Z,9.20
2018-12-05T08:07:37.911Z,8.27
2018-12-05T08:10:06.693Z,6.97
2018-12-05T08:12:36.901Z,8.33
2018-12-05T08:15:08.262Z,8.63
2018-12-05T08:17:37.187Z,10.73
2018-12-05T08:20:06.385Z,11.63
